• Join FlightAware (Why Join?)
  • Login
  • US Flag 
05:20AM EDT


 

Airport Tracker/Info


-or-


 

Live Flight TrackerFlight Track Log ✈ ASA62 ✈ 14-May-2013 ✈ PAKT / KTN - KSEA

Flight Track Log - Related Links

Times and Time Zones

All times are in EDT time to prevent confusion due to time zone crossing. See the ASA62 flight status page for this flight to view local times or setup timezone preferences in your user account.

Time Position Orientation Groundspeed Altitude Reporting Facility
EDT Latitude Longitude Course Direction KTS MPH feet Rate Location/Type
05:19PM 55.2667 -131.6000 167° South 220 253 5,500  Level Anchorage Center
05:20PM 55.2167 -131.6167 191° South 210 242 7,900 2,520 Climbing Anchorage Center
05:21PM 55.1500 -131.6333 188° South 270 311 10,600 2,340 Climbing Anchorage Center
05:22PM 55.0667 -131.6000 167° South 300 345 12,600 1,980 Climbing Anchorage Center
05:23PM 54.9833 -131.5500 161° South 350 403 14,600 2,280 Climbing Anchorage Center
05:24PM 54.7930 -131.4705 167° South  Level FlightAware Approximate
05:24PM 54.8833 -131.5000 164° South 370 426 17,200  Level Anchorage Center
05:25PM 54.7833 -131.4667 169° South 380 437 19,400 2,220 Climbing Anchorage Center
05:26PM 54.6667 -131.4167 166° South 390 449 21,700 1,860 Climbing Anchorage Center
05:27PM 54.5667 -131.3833 169° South 400 460 23,200 1,680 Climbing Anchorage Center
05:28PM 54.4500 -131.3333 166° South 430 495 25,100 1,740 Climbing Anchorage Center
05:29PM 54.3500 -131.2333 150° Southeast 440 506 26,700 1,920 Climbing Anchorage Center
05:30PM 54.2500 -131.0833 139° Southeast 440 506 29,000 2,100 Climbing Anchorage Center
05:31PM 54.1667 -130.9500 137° Southeast 430 495 31,000 1,800 Climbing Anchorage Center
05:32PM 54.0833 -130.8167 137° Southeast 420 483 32,600 960 Climbing Anchorage Center
05:33PM 54.0000 -130.7000 141° Southeast 410 472 33,000 180 Climbing Anchorage Center
05:34PM 53.9000 -130.5667 142° Southeast 400 460 33,000  Level Anchorage Center
05:35PM 53.8333 -130.4833 144° Southeast 410 472 33,000  Level Vancouver Center
05:36PM 53.7500 -130.3833 145° Southeast 410 472 33,000  Level Vancouver Center
05:37PM 53.6667 -130.2167 130° Southeast 410 472 33,000  Level Vancouver Center
05:38PM 53.5833 -130.1000 140° Southeast 410 472 33,000  Level Vancouver Center
05:39PM 53.4833 -129.9667 142° Southeast 410 472 33,000  Level Vancouver Center
05:40PM 53.4167 -129.8500 134° Southeast 410 472 33,000  Level Vancouver Center
05:41PM 53.3167 -129.7167 141° Southeast 410 472 33,000  Level Vancouver Center
05:42PM 53.2167 -129.6000 145° Southeast 410 472 33,000  Level Vancouver Center
05:43PM 53.1500 -129.4833 134° Southeast 420 483 33,000  Level Vancouver Center
05:44PM 53.0500 -129.3500 141° Southeast 420 483 33,000  Level Vancouver Center
05:45PM 52.9667 -129.2333 140° Southeast 420 483 33,000  Level Vancouver Center
05:46PM 52.8833 -129.0833 133° Southeast 420 483 33,000  Level Vancouver Center
05:47PM 52.7833 -128.9667 145° Southeast 430 495 33,000  Level Vancouver Center
05:48PM 52.6833 -128.8333 141° Southeast 440 506 33,000  Level Vancouver Center
05:49PM 52.6000 -128.7167 140° Southeast 440 506 33,000  Level Vancouver Center
05:50PM 52.5000 -128.5667 138° Southeast 440 506 33,000  Level Vancouver Center
05:51PM 52.4000 -128.4500 145° Southeast 440 506 33,000  Level Vancouver Center
05:52PM 52.3333 -128.3333 133° Southeast 440 506 33,000  Level Vancouver Center
05:53PM 52.2167 -128.1833 142° Southeast 440 506 33,000  Level Vancouver Center
05:54PM 52.1333 -128.0667 139° Southeast 440 506 33,000  Level Vancouver Center
05:55PM 52.0333 -127.9167 137° Southeast 440 506 33,000  Level Vancouver Center
05:56PM 51.9500 -127.8000 139° Southeast 440 506 33,000  Level Vancouver Center
05:57PM 51.8667 -127.6667 135° Southeast 440 506 33,000  Level Vancouver Center
05:58PM 51.7667 -127.5167 137° Southeast 440 506 33,000  Level Vancouver Center
05:59PM 51.6667 -127.4000 144° Southeast 440 506 33,000  Level Vancouver Center
06:00PM 51.5833 -127.2667 135° Southeast 440 506 33,000  Level Vancouver Center
06:01PM 51.5000 -127.1500 139° Southeast 440 506 33,000  Level Vancouver Center
06:02PM 51.4000 -127.0167 140° Southeast 430 495 33,000  Level Vancouver Center
06:03PM 51.3167 -126.9000 139° Southeast 430 495 33,000  Level Vancouver Center
06:04PM 51.2167 -126.7500 137° Southeast 430 495 33,000  Level Vancouver Center
06:05PM 51.1167 -126.6167 140° Southeast 440 506 33,000  Level Vancouver Center
06:06PM 51.0500 -126.5000 132° Southeast 440 506 33,000  Level Vancouver Center
06:07PM 50.9500 -126.3667 140° Southeast 440 506 33,000  Level Vancouver Center
06:08PM 50.8500 -126.2500 144° Southeast 440 506 33,000  Level Vancouver Center
06:09PM 50.7500 -126.1167 140° Southeast 440 506 33,000  Level Vancouver Center
06:10PM 50.6667 -126.0167 143° Southeast 440 506 33,000  Level Vancouver Center
06:11PM 50.5667 -125.8833 140° Southeast 440 506 33,000  Level Vancouver Center
06:12PM 50.4833 -125.7333 131° Southeast 440 506 33,000  Level Vancouver Center
06:13PM 50.4000 -125.6333 143° Southeast 440 506 33,000  Level Vancouver Center
06:14PM 50.3000 -125.5000 140° Southeast 440 506 33,000  Level Vancouver Center
06:15PM 50.2000 -125.3667 139° Southeast 440 506 33,000  Level Vancouver Center
06:16PM 50.1167 -125.2500 138° Southeast 450 518 33,000  Level Vancouver Center
06:17PM 50.0000 -125.1167 144° Southeast 450 518 33,000  Level Vancouver Center
06:18PM 49.9167 -124.9833 134° Southeast 450 518 33,000  Level Vancouver Center
06:19PM 49.8167 -124.8833 147° Southeast 450 518 33,000  Level Vancouver Center
06:20PM 49.7167 -124.7500 139° Southeast 450 518 33,000  Level Vancouver Center
06:21PM 49.6333 -124.6167 134° Southeast 450 518 33,000  Level Vancouver Center
06:22PM 49.5333 -124.5000 143° Southeast 450 518 33,000  Level Vancouver Center
06:23PM 49.4333 -124.3833 143° Southeast 450 518 33,000  Level Vancouver Center
06:24PM 49.3333 -124.2667 143° Southeast 450 518 33,000  Level Vancouver Center
06:25PM 49.2333 -124.1333 139° Southeast 450 518 33,000  Level Vancouver Center
06:26PM 49.1500 -124.0333 142° Southeast 450 518 33,000  Level Vancouver Center
06:27PM 49.0500 -123.9000 139° Southeast 450 518 33,000  Level Vancouver Center
06:28PM 48.9500 -123.8000 147° Southeast 450 518 33,000  Level Vancouver Center
06:29PM 48.8500 -123.6667 139° Southeast 450 518 33,000 -60 Level Vancouver Center
06:30PM 48.7667 -123.5500 137° Southeast 450 518 32,900 -1,740 Descending Vancouver Center
06:31PM 48.6500 -123.4500 150° Southeast 450 518 29,600 -3,600 Descending Vancouver Center
06:32PM 48.5500 -123.3167 139° Southeast 450 518 25,700 -3,600 Descending Vancouver Center
06:33PM 48.4500 -123.2500 156° South 460 529 22,400 -2,580 Descending Vancouver Center
06:34PM 48.3500 -123.1500 146° Southeast 440 506 20,600 -1,980 Descending Vancouver Center
06:35PM 48.2528 -123.0442 144° Southeast 390 449 18,200 -2,040 Descending Seattle Center
06:36PM 48.1692 -122.9672 148° Southeast 358 412 16,200 -2,100 Descending Seattle Center
06:37PM 48.1117 -122.9142 148° Southeast 350 403 14,700 -2,220 Descending Seattle Center
06:37PM 48.0869 -122.8919 149° Southeast 352 405 14,000 -2,100 Descending Seattle Center
06:38PM 48.0292 -122.8303 144° Southeast 345 397 12,600 -1,620 Descending Seattle Center
06:38PM 48.0164 -122.8017 124° Southeast 342 394 12,400 -720 Descending Seattle Center
06:38PM 47.9961 -122.7592 125° Southeast 320 368 12,100 -1,320 Descending Seattle Center
06:39PM 47.9639 -122.6989 129° Southeast 314 361 11,100 -1,620 Descending Seattle Center
06:40PM 47.9253 -122.6261 128° Southeast 306 352 10,000 -1,380 Descending Seattle Center
06:40PM 47.9125 -122.6017 128° Southeast 301 346 9,700 -1,560 Descending Seattle Center
06:41PM 47.8864 -122.5583 132° Southeast 290 334 8,900 -1,320 Descending Seattle Center
06:41PM 47.8611 -122.5117 129° Southeast 287 330 8,400 -1,200 Descending Seattle Center
06:42PM 47.8356 -122.4708 133° Southeast 270 311 7,700 -1,620 Descending Seattle Center
06:42PM 47.8022 -122.4256 138° Southeast 266 306 6,800 -1,380 Descending Seattle Center
06:43PM 47.7783 -122.4103 157° South 256 295 6,300 -1,020 Descending Seattle Center
06:43PM 47.7353 -122.3756 152° Southeast 251 289 5,800 -960 Descending Seattle Center
06:44PM 47.7017 -122.3536 156° South 228 262 5,100 -1,200 Descending Seattle Center
06:44PM 47.6786 -122.3372 154° Southeast 227 261 4,600 -1,260 Descending Seattle Center
06:45PM 47.6536 -122.3211 157° South 217 250 4,100 -1,020 Descending Seattle Center
06:45PM 47.6236 -122.3169 175° South 207 238 3,600 -1,020 Descending Seattle Center
06:46PM 47.6014 -122.3169 180° South 181 208 3,100 -1,020 Descending Seattle Center
06:46PM 47.5736 -122.3169 180° South 183 211 2,600 -900 Descending Seattle Center
06:47PM 47.5553 -122.3194 185° South 154 177 2,200 -840 Descending Seattle Center
06:47PM 47.5325 -122.3178 177° South 152 175 1,800 -720 Descending Seattle Center
06:48PM 47.5169 -122.3178 180° South 134 154 1,500 -840 Descending Seattle Center
06:48PM 47.4925 -122.3178 180° South 137 158 1,000 -840 Descending Seattle Center
06:49PM 47.4750 -122.3181 181° South 133 153 700 -600 Descending Seattle Center
06:49PM 47.4575 -122.3183 181° South 136 157 400 -540 Descending Seattle Center
06:51PM 47.4499 -122.3118 170° South  Level Estimated